Time;durP1;ratioP1;P1;durP2;ratioP2;P2;SDS_P1;SDS_P2;PMS_P1;PMS_P2;Temp;Humidity;BMP_temperature;BMP_pressure;BME280_temperature;BME280_humidity;BME280_pressure;Samples;Min_cycle;Max_cycle;Signal;HPM_P1;HPM_P2
2021/07/25 00:01:15;;;;;;;4.97;1.88;;;15.30;99.90;;;;;;6161552;23;20471;-82
2021/07/25 00:03:42;;;;;;;;;;;15.30;99.90;;;;;;6217876;23;20036;-82
2021/07/25 00:06:28;;;;;;;3.58;2.05;;;15.40;99.90;;;;;;6196367;23;19931;-82
2021/07/25 00:08:56;;;;;;;2.97;1.83;;;15.30;99.90;;;;;;6172384;23;20340;-82
2021/07/25 00:11:23;;;;;;;3.40;2.25;;;15.30;99.90;;;;;;6210417;23;20490;-82
2021/07/25 00:13:52;;;;;;;4.53;1.92;;;15.40;99.90;;;;;;6161401;23;20016;-83
2021/07/25 00:16:20;;;;;;;2.30;1.83;;;15.40;99.90;;;;;;6186838;23;20025;-82
2021/07/25 00:18:48;;;;;;;3.20;1.52;;;15.30;99.90;;;;;;6194970;23;20021;-82
2021/07/25 00:21:16;;;;;;;11.18;3.92;;;15.30;99.90;;;;;;6171915;23;20017;-82
2021/07/25 00:23:47;;;;;;;5.82;1.77;;;15.30;99.90;;;;;;6186048;23;20032;-82
2021/07/25 00:26:17;;;;;;;;;;;15.30;99.90;;;;;;6187132;23;20020;-81
2021/07/25 00:28:45;;;;;;;2.45;2.00;;;15.30;99.90;;;;;;6185636;23;19949;-81
2021/07/25 00:31:13;;;;;;;4.72;2.25;;;15.30;99.90;;;;;;6160240;23;20020;-81
2021/07/25 00:33:41;;;;;;;8.73;3.75;;;15.40;99.90;;;;;;6197691;23;20020;-81
2021/07/25 00:36:09;;;;;;;1.90;1.50;;;15.30;99.90;;;;;;6189116;23;20028;-81
2021/07/25 00:38:37;;;;;;;4.75;2.00;;;15.20;99.90;;;;;;6221858;23;20009;-81
2021/07/25 00:41:10;;;;;;;5.72;2.08;;;15.20;99.90;;;;;;6222898;23;20600;-82
2021/07/25 00:43:39;;;;;;;4.15;2.63;;;15.20;99.90;;;;;;6217519;23;20031;-81
2021/07/25 00:46:07;;;;;;;2.28;1.73;;;15.20;99.90;;;;;;6222250;23;20428;-82
2021/07/25 00:48:36;;;;;;;2.33;1.52;;;15.10;99.90;;;;;;6213645;23;20028;-82
2021/07/25 00:51:05;;;;;;;5.50;1.80;;;15.10;99.90;;;;;;6219019;23;20031;-82
2021/07/25 00:53:34;;;;;;;3.45;2.38;;;15.00;99.90;;;;;;6222956;23;20017;-81
2021/07/25 00:56:04;;;;;;;3.92;2.92;;;15.00;99.90;;;;;;6215222;23;20498;-81
2021/07/25 00:58:31;;;;;;;4.40;2.55;;;15.00;99.90;;;;;;6161157;23;20048;-81
2021/07/25 01:00:59;;;;;;;3.78;2.03;;;15.00;99.90;;;;;;6195723;23;20023;-81
2021/07/25 01:04:18;;;;;;;3.83;2.00;;;15.00;99.90;;;;;;6161436;23;20333;-81
2021/07/25 01:06:45;;;;;;;3.15;2.20;;;15.10;99.90;;;;;;6177276;23;20016;-81
2021/07/25 01:09:32;;;;;;;1.63;1.52;;;15.00;99.90;;;;;;6195619;23;20017;-81
2021/07/25 01:12:06;;;;;;;1.70;1.52;;;15.00;99.90;;;;;;6215358;23;20324;-82
2021/07/25 01:14:38;;;;;;;5.70;1.90;;;15.00;99.90;;;;;;6170391;23;20021;-81
2021/07/25 01:17:32;;;;;;;2.20;2.05;;;15.00;99.90;;;;;;6186803;23;20016;-82
2021/07/25 01:20:06;;;;;;;4.20;2.35;;;15.00;99.90;;;;;;6157941;23;20024;-81
2021/07/25 01:22:45;;;;;;;4.10;1.75;;;14.90;99.90;;;;;;6185677;23;20043;-81
2021/07/25 01:25:15;;;;;;;5.80;2.78;;;14.90;99.90;;;;;;6196401;23;20032;-81
2021/07/25 01:28:05;;;;;;;4.85;1.95;;;14.90;99.90;;;;;;6211140;23;20032;-81
2021/07/25 01:30:36;;;;;;;4.53;2.38;;;14.90;99.90;;;;;;6193660;23;20436;-81
2021/07/25 01:33:21;;;;;;;2.78;1.92;;;14.90;99.90;;;;;;6222925;23;20017;-81
2021/07/25 01:35:50;;;;;;;2.72;1.83;;;14.90;99.90;;;;;;6216547;23;20020;-81
2021/07/25 01:38:18;;;;;;;2.75;2.15;;;15.00;99.90;;;;;;6161061;23;20017;-81
2021/07/25 01:41:08;;;;;;;9.32;2.53;;;15.00;99.90;;;;;;6160099;23;20036;-81
2021/07/25 01:43:42;;;;;;;9.23;2.22;;;15.10;99.90;;;;;;6160159;23;20028;-81
2021/07/25 01:46:11;;;;;;;1.95;1.73;;;15.10;99.90;;;;;;6171177;23;20515;-81
2021/07/25 01:48:39;;;;;;;4.55;3.47;;;15.10;99.90;;;;;;6186392;23;20499;-81
2021/07/25 01:51:07;;;;;;;7.30;2.90;;;15.10;99.90;;;;;;6192326;23;20021;-81
2021/07/25 01:53:34;;;;;;;5.28;2.15;;;15.10;99.90;;;;;;6222754;23;20023;-81
2021/07/25 01:56:02;;;;;;;4.35;1.88;;;15.10;99.90;;;;;;6214567;23;20020;-81
2021/07/25 01:58:30;;;;;;;5.90;1.80;;;15.00;99.90;;;;;;6221433;23;20015;-81
2021/07/25 02:00:58;;;;;;;3.92;2.85;;;15.00;99.90;;;;;;6195561;23;20340;-81
2021/07/25 02:03:28;;;;;;;1.92;1.58;;;15.00;99.90;;;;;;6191285;23;20020;-81
2021/07/25 02:05:56;;;;;;;4.18;1.90;;;15.00;99.90;;;;;;6196860;23;20020;-81
2021/07/25 02:08:24;;;;;;;2.60;2.22;;;15.00;99.90;;;;;;6160773;23;20024;-81
2021/07/25 02:10:53;;;;;;;2.42;1.77;;;15.10;99.90;;;;;;6159874;23;20024;-81
2021/07/25 02:13:22;;;;;;;7.22;1.92;;;15.00;99.90;;;;;;6222919;23;20480;-81
2021/07/25 02:15:51;;;;;;;5.03;2.45;;;15.00;99.90;;;;;;6159470;23;20028;-81
2021/07/25 02:18:19;;;;;;;2.40;1.67;;;15.00;99.90;;;;;;6195643;23;20021;-81
2021/07/25 02:20:48;;;;;;;2.20;1.75;;;15.00;99.90;;;;;;6196373;23;20328;-81
2021/07/25 02:23:16;;;;;;;2.58;2.33;;;15.00;99.90;;;;;;6191804;23;20035;-81
2021/07/25 02:25:44;;;;;;;5.72;1.77;;;15.00;99.90;;;;;;6160866;23;20037;-81
2021/07/25 02:28:11;;;;;;;4.85;2.97;;;15.00;99.90;;;;;;6160571;23;20024;-81
2021/07/25 02:30:40;;;;;;;2.72;2.05;;;15.10;99.90;;;;;;6159387;23;20460;-81
2021/07/25 02:33:08;;;;;;;2.00;1.75;;;15.10;99.90;;;;;;6196161;23;20012;-81
2021/07/25 02:35:36;;;;;;;6.10;2.47;;;15.10;99.90;;;;;;6165327;23;20040;-81
2021/07/25 02:38:04;;;;;;;6.30;2.22;;;15.00;99.90;;;;;;6210547;23;20028;-81
2021/07/25 02:40:32;;;;;;;6.25;2.70;;;14.90;99.90;;;;;;6209312;23;20025;-81
2021/07/25 02:43:00;;;;;;;5.00;2.50;;;14.90;99.90;;;;;;6219282;23;20020;-81
2021/07/25 02:45:27;;;;;;;3.30;1.80;;;14.80;99.90;;;;;;6195394;23;20024;-81
2021/07/25 02:47:55;;;;;;;5.70;1.85;;;14.70;99.90;;;;;;6189057;23;20052;-81
2021/07/25 02:50:23;;;;;;;2.85;2.15;;;14.70;99.90;;;;;;6170110;23;20087;-82
2021/07/25 02:52:50;;;;;;;3.50;1.90;;;14.60;99.90;;;;;;6160678;23;20020;-82
2021/07/25 02:55:18;;;;;;;5.18;2.53;;;14.70;99.90;;;;;;6160068;23;20025;-81
2021/07/25 02:57:46;;;;;;;3.88;2.50;;;14.70;99.90;;;;;;6196173;23;20024;-82
2021/07/25 03:00:14;;;;;;;4.63;2.35;;;14.80;99.90;;;;;;6186500;23;20055;-82
2021/07/25 03:02:42;;;;;;;5.18;2.00;;;14.80;99.90;;;;;;6208938;23;20360;-81
2021/07/25 03:05:10;;;;;;;2.38;2.17;;;14.90;99.90;;;;;;6196197;23;20024;-81
2021/07/25 03:07:38;;;;;;;3.15;2.33;;;14.90;99.90;;;;;;6183844;23;20028;-82
2021/07/25 03:10:06;;;;;;;2.22;2.00;;;14.80;99.90;;;;;;6188390;23;20015;-82
2021/07/25 03:12:34;;;;;;;4.40;2.55;;;14.90;99.90;;;;;;6185550;23;20025;-81
2021/07/25 03:15:02;;;;;;;4.72;2.95;;;15.00;99.90;;;;;;6218349;23;20642;-82
2021/07/25 03:17:29;;;;;;;3.00;1.98;;;15.00;99.90;;;;;;6222225;23;20023;-82
2021/07/25 03:20:00;;;;;;;3.40;1.73;;;15.00;99.90;;;;;;6188415;23;20025;-82
2021/07/25 03:22:27;;;;;;;3.25;2.17;;;15.10;99.90;;;;;;6209444;23;20020;-82
2021/07/25 03:24:55;;;;;;;4.40;2.17;;;15.20;99.90;;;;;;6136806;23;20028;-82
2021/07/25 03:27:23;;;;;;;3.63;2.42;;;15.20;99.90;;;;;;6185087;23;20020;-81
2021/07/25 03:29:53;;;;;;;6.07;3.05;;;15.40;99.90;;;;;;6195279;23;20013;-82
2021/07/25 03:32:22;;;;;;;2.33;1.85;;;15.40;99.90;;;;;;6185910;23;20020;-82
2021/07/25 03:34:50;;;;;;;3.95;2.33;;;15.40;99.90;;;;;;6193174;23;20317;-83
2021/07/25 03:37:18;;;;;;;6.93;2.40;;;15.50;99.90;;;;;;6220040;23;20347;-82
2021/07/25 03:39:48;;;;;;;7.97;2.67;;;15.50;99.90;;;;;;6188487;23;20047;-81
2021/07/25 03:42:15;;;;;;;3.88;2.33;;;15.40;99.90;;;;;;6160722;23;20028;-81
2021/07/25 03:44:43;;;;;;;3.28;1.77;;;15.40;99.90;;;;;;6213330;23;20031;-82
2021/07/25 03:47:12;;;;;;;4.70;4.10;;;15.40;99.90;;;;;;6219231;23;20031;-81
2021/07/25 03:49:40;;;;;;;3.85;2.15;;;15.30;99.90;;;;;;6172968;23;20019;-81
2021/07/25 03:52:10;;;;;;;3.63;2.33;;;15.30;99.90;;;;;;6188683;23;20028;-82
2021/07/25 03:54:42;;;;;;;10.60;4.30;;;15.30;99.90;;;;;;6136536;23;20013;-81
2021/07/25 03:57:10;;;;;;;3.30;2.15;;;15.30;99.90;;;;;;6223531;23;20048;-80
2021/07/25 03:59:39;;;;;;;2.70;2.28;;;15.30;99.90;;;;;;6218262;23;20031;-81
2021/07/25 04:02:06;;;;;;;2.53;2.08;;;15.30;99.90;;;;;;6185763;23;20016;-81
2021/07/25 04:04:34;;;;;;;2.20;2.00;;;15.30;99.90;;;;;;6186305;23;20031;-81
2021/07/25 04:07:02;;;;;;;4.03;2.25;;;15.30;99.90;;;;;;6169164;23;20016;-81
2021/07/25 04:09:30;;;;;;;2.85;2.47;;;15.20;99.90;;;;;;6211311;23;20021;-81
2021/07/25 04:11:58;;;;;;;6.63;4.18;;;15.20;99.90;;;;;;6189402;23;20028;-81
2021/07/25 04:14:25;;;;;;;6.75;4.55;;;15.20;99.90;;;;;;6195997;23;20013;-81
2021/07/25 04:16:53;;;;;;;9.73;3.22;;;15.20;99.90;;;;;;6186172;23;20467;-81
2021/07/25 04:19:21;;;;;;;4.28;3.38;;;15.20;99.90;;;;;;6192700;23;20027;-82
2021/07/25 04:21:48;;;;;;;7.78;3.20;;;15.10;99.90;;;;;;6161128;23;20743;-81
2021/07/25 04:24:16;;;;;;;3.30;2.55;;;15.10;99.90;;;;;;6136766;23;20028;-81
2021/07/25 04:26:44;;;;;;;6.47;3.67;;;15.10;99.90;;;;;;6184934;23;20031;-81
2021/07/25 04:29:12;;;;;;;3.78;2.70;;;15.10;99.90;;;;;;6161732;23;20024;-80
2021/07/25 04:31:40;;;;;;;6.85;2.50;;;15.10;99.90;;;;;;6160450;23;20495;-80
2021/07/25 04:34:08;;;;;;;4.63;2.42;;;15.10;99.90;;;;;;6196610;23;20008;-80
2021/07/25 04:36:36;;;;;;;4.25;2.55;;;15.20;99.90;;;;;;6161237;23;20021;-80
2021/07/25 04:39:08;;;;;;;3.63;2.53;;;15.30;99.90;;;;;;6161557;23;20017;-80
2021/07/25 04:41:50;;;;;;;6.03;2.33;;;15.40;99.90;;;;;;6196637;23;20012;-80
2021/07/25 04:44:31;;;;;;;9.55;2.42;;;15.40;99.90;;;;;;6164031;23;20518;-80
2021/07/25 04:47:03;;;;;;;3.45;3.05;;;15.50;99.90;;;;;;6158896;23;20024;-80
2021/07/25 04:49:48;;;;;;;5.53;2.38;;;15.50;99.90;;;;;;6196742;23;20013;-80
2021/07/25 04:52:18;;;;;;;4.72;2.60;;;15.50;99.90;;;;;;6187995;23;20351;-80
2021/07/25 04:54:47;;;;;;;4.07;2.30;;;15.50;99.90;;;;;;6210340;23;20043;-80
2021/07/25 04:57:19;;;;;;;4.70;2.55;;;15.50;99.90;;;;;;6222618;23;20039;-79
2021/07/25 04:59:50;;;;;;;2.13;1.92;;;15.60;99.90;;;;;;6190251;23;20020;-80
2021/07/25 05:02:20;;;;;;;3.85;2.95;;;15.60;99.90;;;;;;6186411;23;20021;-82
2021/07/25 05:04:49;;;;;;;4.15;3.17;;;15.70;99.90;;;;;;6160710;23;20348;-82
2021/07/25 05:07:17;;;;;;;7.03;2.78;;;15.70;99.90;;;;;;6210182;23;20028;-82
2021/07/25 05:09:45;;;;;;;6.57;3.05;;;15.80;99.90;;;;;;6195765;23;20012;-82
2021/07/25 05:12:23;;;;;;;7.47;3.13;;;15.90;99.90;;;;;;6214308;22;20021;-82
2021/07/25 05:15:15;;;;;;;3.80;2.88;;;16.00;99.90;;;;;;6193960;23;20025;-82
2021/07/25 05:17:49;;;;;;;6.00;3.70;;;16.10;99.90;;;;;;6223335;23;20436;-82
2021/07/25 05:20:17;;;;;;;6.95;2.70;;;16.10;99.90;;;;;;6184163;23;20048;-82
2021/07/25 05:23:02;;;;;;;4.55;2.95;;;16.20;99.90;;;;;;6194451;23;20035;-82
2021/07/25 05:25:31;;;;;;;3.17;2.90;;;16.10;99.90;;;;;;6223042;23;20013;-82
2021/07/25 05:28:05;;;;;;;13.75;3.05;;;16.20;99.90;;;;;;6215647;23;20032;-82
2021/07/25 05:30:39;;;;;;;3.42;2.60;;;16.20;99.90;;;;;;6184518;23;20028;-82
2021/07/25 05:33:07;;;;;;;3.28;2.97;;;16.30;99.90;;;;;;6223279;23;20020;-82
2021/07/25 05:35:35;;;;;;;4.20;2.83;;;16.40;99.90;;;;;;6190713;23;20029;-82
2021/07/25 05:38:06;;;;;;;4.30;2.35;;;16.40;99.90;;;;;;6186547;23;20027;-82
2021/07/25 05:40:34;;;;;;;2.85;2.55;;;16.50;99.90;;;;;;6212555;23;20028;-80
2021/07/25 05:43:02;;;;;;;2.85;2.50;;;16.70;99.90;;;;;;6219115;23;20020;-81
2021/07/25 05:45:31;;;;;;;11.52;3.53;;;16.70;99.90;;;;;;6222500;23;20019;-80
2021/07/25 05:47:59;;;;;;;4.38;2.67;;;16.80;99.90;;;;;;6215686;23;20021;-82
2021/07/25 05:50:27;;;;;;;6.22;2.65;;;16.80;99.90;;;;;;6195219;23;20324;-82
2021/07/25 05:52:57;;;;;;;5.63;3.50;;;16.90;99.90;;;;;;6223233;23;20013;-82
2021/07/25 05:55:30;;;;;;;13.25;3.22;;;16.90;99.90;;;;;;6216055;23;20020;-82
2021/07/25 05:58:00;;;;;;;3.60;2.72;;;16.90;99.90;;;;;;6197526;23;20341;-82
2021/07/25 06:00:28;;;;;;;13.20;3.90;;;16.90;99.90;;;;;;6212476;23;20024;-82
2021/07/25 06:03:01;;;;;;;5.47;3.58;;;16.90;99.90;;;;;;6219820;23;20024;-82
2021/07/25 06:05:31;;;;;;;6.20;3.17;;;17.00;99.90;;;;;;6185527;23;20023;-82
2021/07/25 06:08:00;;;;;;;4.80;3.13;;;17.10;99.90;;;;;;6224417;23;20024;-82
2021/07/25 06:10:30;;;;;;;7.20;3.47;;;17.20;99.90;;;;;;6187872;23;20020;-82
2021/07/25 06:13:01;;;;;;;3.67;2.75;;;17.30;99.90;;;;;;6214956;23;20024;-82
2021/07/25 06:15:30;;;;;;;4.90;2.40;;;17.50;99.90;;;;;;6219936;23;20039;-82
2021/07/25 06:18:01;;;;;;;5.80;4.10;;;17.60;99.90;;;;;;6226492;23;20012;-82
2021/07/25 06:20:30;;;;;;;4.57;3.10;;;17.80;99.90;;;;;;6242769;23;20031;-82
2021/07/25 06:22:59;;;;;;;6.68;3.75;;;18.00;99.90;;;;;;6214945;23;20024;-83
2021/07/25 06:25:32;;;;;;;6.85;2.90;;;18.10;99.90;;;;;;6253032;23;20016;-82
2021/07/25 06:28:03;;;;;;;8.20;4.50;;;18.10;99.90;;;;;;6218997;23;20024;-83
2021/07/25 06:30:31;;;;;;;5.05;3.80;;;18.10;99.90;;;;;;6223974;22;20016;-82
2021/07/25 06:33:03;;;;;;;9.40;3.42;;;18.00;99.90;;;;;;6252780;23;20015;-82
2021/07/25 06:35:33;;;;;;;3.20;2.90;;;18.00;99.90;;;;;;6246514;23;20371;-82
2021/07/25 06:38:05;;;;;;;4.88;3.13;;;18.10;99.90;;;;;;6253185;23;20016;-82
2021/07/25 06:40:32;;;;;;;;;;;18.30;99.90;;;;;;6243288;22;20020;-82
2021/07/25 06:43:01;;;;;;;3.72;2.65;;;18.20;99.90;;;;;;6249886;23;19923;-82
2021/07/25 06:45:32;;;;;;;6.57;3.05;;;18.20;99.90;;;;;;6252551;23;20432;-83
2021/07/25 06:48:00;;;;;;;3.63;3.33;;;18.30;99.90;;;;;;6245378;23;20024;-83
2021/07/25 06:50:30;;;;;;;6.43;3.17;;;18.40;99.90;;;;;;6200236;23;20035;-82
2021/07/25 06:52:58;;;;;;;3.60;2.70;;;18.50;99.90;;;;;;6253393;23;20022;-83
2021/07/25 06:55:28;;;;;;;8.27;3.55;;;18.60;99.90;;;;;;6247411;22;20020;-83
2021/07/25 06:57:56;;;;;;;3.93;2.93;;;18.70;99.90;;;;;;6226242;23;20016;-83
2021/07/25 07:00:26;;;;;;;4.93;2.88;;;18.80;99.90;;;;;;6243024;23;20028;-82
2021/07/25 07:02:56;;;;;;;7.25;4.38;;;18.70;99.90;;;;;;6223111;23;20031;-82
2021/07/25 07:05:26;;;;;;;6.00;3.95;;;18.70;99.90;;;;;;6252518;23;20019;-83
2021/07/25 07:07:56;;;;;;;4.80;3.47;;;18.60;99.90;;;;;;6218970;23;20055;-82
2021/07/25 07:10:26;;;;;;;14.70;4.05;;;18.60;99.90;;;;;;6251234;22;20019;-82
2021/07/25 07:12:55;;;;;;;4.25;3.20;;;18.60;99.90;;;;;;6226187;23;20435;-83
2021/07/25 07:15:25;;;;;;;4.38;3.53;;;18.70;99.90;;;;;;6249278;23;20750;-82
2021/07/25 07:17:55;;;;;;;14.02;3.95;;;18.80;99.90;;;;;;6254785;23;20012;-83
2021/07/25 07:20:23;;;;;;;10.27;3.58;;;19.20;99.90;;;;;;6245581;22;20035;-83
2021/07/25 07:23:03;;;;;;;14.18;4.53;;;19.20;99.90;;;;;;6252114;23;20023;-83
2021/07/25 07:25:44;;;;;;;6.15;4.72;;;19.20;99.90;;;;;;6227785;23;20012;-83
2021/07/25 07:28:12;;;;;;;3.92;3.53;;;19.20;99.90;;;;;;6246510;22;20031;-83
2021/07/25 07:30:40;;;;;;;4.53;3.42;;;19.40;99.90;;;;;;6191483;23;20435;-80
2021/07/25 07:33:09;;;;;;;5.68;3.88;;;19.50;99.90;;;;;;6243214;23;20035;-80
2021/07/25 07:35:38;;;;;;;3.60;3.08;;;19.30;99.90;;;;;;6221577;23;20031;-80
2021/07/25 07:38:08;;;;;;;10.40;3.67;;;19.30;99.90;;;;;;6254973;23;20020;-80
2021/07/25 07:40:38;;;;;;;8.48;4.60;;;19.10;99.90;;;;;;6243992;23;20459;-81
2021/07/25 07:43:08;;;;;;;6.15;4.10;;;19.10;99.90;;;;;;6167386;23;20016;-80
2021/07/25 07:45:37;;;;;;;5.63;3.80;;;18.90;99.90;;;;;;6227325;23;20020;-80
2021/07/25 07:48:05;;;;;;;10.07;6.53;;;18.70;99.90;;;;;;6219692;23;20028;-80
2021/07/25 07:50:33;;;;;;;6.03;4.53;;;18.70;99.90;;;;;;6252659;23;20335;-79
2021/07/25 07:53:01;;;;;;;9.93;4.22;;;18.70;99.90;;;;;;6254804;23;20335;-80
2021/07/25 07:55:29;;;;;;;5.20;3.25;;;18.70;99.90;;;;;;6248673;23;20028;-80
2021/07/25 07:57:57;;;;;;;6.50;3.40;;;18.90;99.90;;;;;;6254660;23;20027;-80
2021/07/25 08:00:24;;;;;;;6.72;3.72;;;19.00;99.90;;;;;;6244530;22;20031;-80
2021/07/25 08:02:52;;;;;;;4.80;3.78;;;19.30;99.90;;;;;;6250786;23;20020;-80
2021/07/25 08:05:20;;;;;;;4.63;3.40;;;19.70;99.90;;;;;;6254334;23;20456;-80
2021/07/25 08:07:48;;;;;;;8.23;3.85;;;19.90;99.90;;;;;;6247613;23;20020;-80
2021/07/25 08:10:16;;;;;;;5.72;3.10;;;20.00;99.90;;;;;;6216707;23;20027;-80
2021/07/25 08:12:44;;;;;;;3.47;2.83;;;20.10;99.90;;;;;;6242838;23;20352;-81
2021/07/25 08:15:12;;;;;;;12.52;3.65;;;20.20;99.90;;;;;;6250163;22;20023;-80
2021/07/25 08:17:40;;;;;;;4.20;3.40;;;19.80;99.90;;;;;;6254714;23;20012;-80
2021/07/25 08:20:08;;;;;;;7.40;3.65;;;19.90;99.90;;;;;;6245982;23;20035;-81
2021/07/25 08:22:38;;;;;;;5.45;3.53;;;20.10;99.90;;;;;;6252482;23;20027;-80
2021/07/25 08:25:06;;;;;;;9.40;4.72;;;20.20;99.90;;;;;;6253178;23;20012;-80
2021/07/25 08:27:35;;;;;;;5.45;3.67;;;20.00;99.90;;;;;;6248214;23;20343;-81
2021/07/25 08:30:04;;;;;;;4.45;3.60;;;19.80;99.90;;;;;;6255254;23;20016;-81
2021/07/25 08:32:32;;;;;;;8.30;4.82;;;19.80;99.90;;;;;;6245680;22;20020;-81
2021/07/25 08:35:00;;;;;;;4.25;3.47;;;19.80;99.90;;;;;;6251807;23;20031;-80
2021/07/25 08:37:27;;;;;;;5.50;3.78;;;19.70;99.90;;;;;;6256080;23;20016;-82
2021/07/25 08:39:55;;;;;;;6.45;4.28;;;19.80;99.90;;;;;;6247926;23;20455;-82
2021/07/25 08:42:24;;;;;;;10.43;5.10;;;19.90;99.90;;;;;;6253265;23;20016;-81
2021/07/25 08:44:58;;;;;;;5.05;4.10;;;19.80;99.90;;;;;;6254421;23;20008;-82
2021/07/25 08:47:26;;;;;;;6.25;4.30;;;19.70;99.90;;;;;;6248472;23;20572;-82
2021/07/25 08:50:08;;;;;;;9.90;4.88;;;19.90;99.90;;;;;;6226936;23;20015;-84
2021/07/25 08:52:41;;;;;;;5.88;3.05;;;20.30;99.90;;;;;;6243956;23;20020;-83
2021/07/25 08:55:13;;;;;;;5.85;3.95;;;20.60;99.90;;;;;;6249542;22;20343;-83
2021/07/25 08:57:43;;;;;;;4.57;4.15;;;20.90;99.90;;;;;;6254629;23;20019;-83
2021/07/25 09:00:14;;;;;;;5.47;4.07;;;21.10;99.90;;;;;;6246130;23;20032;-82
2021/07/25 09:02:42;;;;;;;5.28;4.25;;;20.80;99.90;;;;;;6252459;22;20054;-79
2021/07/25 09:05:10;;;;;;;6.53;3.75;;;20.70;99.90;;;;;;6254779;23;20008;-79
2021/07/25 09:07:40;;;;;;;6.68;4.20;;;20.40;99.90;;;;;;6222124;23;20023;-80
2021/07/25 09:10:15;;;;;;;4.55;4.05;;;20.40;99.90;;;;;;6254423;23;20015;-80
2021/07/25 09:12:44;;;;;;;9.50;3.72;;;20.30;99.90;;;;;;6243786;23;20028;-80
2021/07/25 09:15:14;;;;;;;4.93;3.78;;;20.30;99.90;;;;;;6249423;23;20020;-81
2021/07/25 09:17:43;;;;;;;8.50;4.25;;;20.40;99.90;;;;;;6254958;23;20017;-81
2021/07/25 09:20:23;;;;;;;8.27;3.42;;;20.20;99.90;;;;;;6246724;22;20335;-81
2021/07/25 09:22:52;;;;;;;4.53;3.90;;;20.00;99.90;;;;;;6250876;23;20343;-79
2021/07/25 09:25:20;;;;;;;4.55;3.15;;;20.10;99.90;;;;;;6226078;23;20372;-79
2021/07/25 09:27:58;;;;;;;8.30;3.47;;;20.20;99.90;;;;;;6247172;23;20031;-78
2021/07/25 09:30:28;;;;;;;5.97;3.22;;;20.40;99.90;;;;;;6225760;23;20023;-78
2021/07/25 09:32:57;;;;;;;4.65;3.20;;;20.50;99.90;;;;;;6255021;23;20443;-80
2021/07/25 09:35:32;;;;;;;6.95;4.38;;;20.80;99.90;;;;;;6248482;22;20024;-79
2021/07/25 09:38:03;;;;;;;7.05;4.30;;;20.90;99.90;;;;;;6254792;23;20423;-79
2021/07/25 09:40:35;;;;;;;5.85;2.55;;;21.00;99.90;;;;;;6244650;23;20451;-79
2021/07/25 09:43:16;;;;;;;3.88;3.38;;;21.00;99.90;;;;;;6251059;22;20462;-79
2021/07/25 09:45:50;;;;;;;4.38;3.45;;;21.00;99.90;;;;;;6254458;23;20019;-79
2021/07/25 09:48:18;;;;;;;3.67;2.88;;;20.80;99.90;;;;;;6245044;23;20032;-79
2021/07/25 09:50:47;;;;;;;6.00;3.70;;;20.80;99.90;;;;;;6250784;22;20028;-79
2021/07/25 09:53:16;;;;;;;6.28;2.65;;;20.80;99.90;;;;;;6253008;23;20015;-79
2021/07/25 09:55:44;;;;;;;4.35;3.55;;;20.80;99.90;;;;;;6246650;23;20035;-81
2021/07/25 09:58:12;;;;;;;3.33;2.90;;;20.70;99.90;;;;;;6253385;23;20008;-80
2021/07/25 10:00:46;;;;;;;3.83;3.25;;;20.80;99.90;;;;;;6241304;22;20079;-80
2021/07/25 10:03:32;;;;;;;4.35;3.85;;;20.80;99.90;;;;;;6248971;23;20020;-81
2021/07/25 10:06:25;;;;;;;4.22;2.88;;;20.80;99.90;;;;;;6253631;23;20327;-84
2021/07/25 10:09:08;;;;;;;4.70;3.28;;;20.70;99.90;;;;;;6225290;23;20031;-81
2021/07/25 10:11:37;;;;;;;11.02;5.45;;;20.80;99.90;;;;;;6247406;23;20115;-81
2021/07/25 10:14:05;;;;;;;3.40;3.10;;;20.90;99.90;;;;;;6201899;23;20023;-81
2021/07/25 10:16:33;;;;;;;3.90;3.50;;;20.90;99.90;;;;;;6242616;23;20027;-83
2021/07/25 10:19:04;;;;;;;4.22;3.00;;;20.90;99.90;;;;;;6249915;23;20347;-83
2021/07/25 10:21:32;;;;;;;;;;;21.00;99.90;;;;;;6253409;23;20019;-83
2021/07/25 10:24:02;;;;;;;3.70;2.30;;;21.00;99.90;;;;;;6245567;22;20331;-84
2021/07/25 10:26:29;;;;;;;3.13;2.83;;;21.20;99.90;;;;;;6251185;23;20023;-84
2021/07/25 10:28:59;;;;;;;5.13;4.32;;;21.30;99.90;;;;;;6226652;23;20012;-83
2021/07/25 10:31:27;;;;;;;4.72;2.58;;;21.40;99.90;;;;;;6189733;23;20319;-83
2021/07/25 10:33:55;;;;;;;4.57;2.63;;;21.40;99.90;;;;;;6253299;23;20020;-83
2021/07/25 10:36:23;;;;;;;4.38;3.45;;;21.40;99.90;;;;;;6244470;23;20355;-82
2021/07/25 10:38:51;;;;;;;5.45;3.90;;;21.30;99.90;;;;;;6224131;23;20334;-82
2021/07/25 10:41:26;;;;;;;3.28;2.97;;;21.40;99.90;;;;;;6227680;23;20470;-82
2021/07/25 10:43:54;;;;;;;3.13;2.83;;;21.60;99.90;;;;;;6247944;23;20023;-82
2021/07/25 10:46:23;;;;;;;3.20;2.90;;;21.60;99.90;;;;;;6219014;22;20023;-82
2021/07/25 10:49:00;;;;;;;5.78;3.95;;;21.70;99.90;;;;;;6218483;23;20027;-83
2021/07/25 10:51:35;;;;;;;4.38;3.17;;;21.70;99.90;;;;;;6249382;23;20032;-85
2021/07/25 10:54:45;;;;;;;6.82;2.53;;;21.70;99.90;;;;;;6256131;23;20016;-83
2021/07/25 10:57:14;;;;;;;3.17;2.50;;;21.80;99.90;;;;;;6103833;23;20026;-83
2021/07/25 10:59:52;;;;;;;7.25;3.33;;;21.80;99.90;;;;;;6226596;23;20028;-84
2021/07/25 11:02:55;;;;;;;2.53;1.88;;;21.80;99.90;;;;;;6253535;22;20012;-85
2021/07/25 11:05:25;;;;;;;3.30;2.83;;;21.80;99.90;;;;;;6187404;23;20036;-84
2021/07/25 11:07:57;;;;;;;2.67;2.25;;;21.90;99.90;;;;;;6191453;23;20016;-86
2021/07/25 11:10:33;;;;;;;4.72;3.33;;;21.90;99.90;;;;;;6217297;22;20473;-83
2021/07/25 11:13:01;;;;;;;2.25;1.85;;;21.90;99.90;;;;;;6255858;22;20016;-84
2021/07/25 11:15:31;;;;;;;5.90;2.22;;;21.80;99.90;;;;;;6216698;23;20350;-87
2021/07/25 11:18:02;;;;;;;8.43;2.65;;;21.90;99.90;;;;;;6192247;23;20020;-85
2021/07/25 11:21:04;;;;;;;2.08;1.98;;;21.90;99.90;;;;;;6244594;22;20455;-85
2021/07/25 11:23:35;;;;;;;4.68;2.63;;;21.90;99.90;;;;;;6213489;23;20035;-85
2021/07/25 11:26:37;;;;;;;4.25;2.28;;;21.90;99.90;;;;;;6228056;23;20334;-84
2021/07/25 11:29:07;;;;;;;2.83;2.10;;;21.70;99.90;;;;;;6106382;23;20024;-85
2021/07/25 11:31:36;;;;;;;;;;;21.80;99.90;;;;;;6248268;23;20027;-86
2021/07/25 11:34:32;;;;;;;2.60;2.40;;;21.80;99.90;;;;;;6228481;23;19923;-86
2021/07/25 11:37:08;;;;;;;4.80;2.30;;;21.70;99.90;;;;;;6201757;23;20335;-86
2021/07/25 11:39:57;;;;;;;5.30;2.92;;;21.70;99.90;;;;;;6247261;23;20348;-83
2021/07/25 11:42:26;;;;;;;4.05;2.88;;;21.70;99.90;;;;;;6214825;22;20012;-86
2021/07/25 11:45:04;;;;;;;2.95;2.08;;;21.80;99.90;;;;;;6168318;23;20020;-85
2021/07/25 11:47:33;;;;;;;3.88;3.35;;;21.90;99.90;;;;;;6195375;23;20016;-85
2021/07/25 11:50:01;;;;;;;3.80;2.50;;;21.90;99.90;;;;;;6228106;23;20016;-85
2021/07/25 11:52:29;;;;;;;2.85;2.42;;;22.00;99.90;;;;;;6216737;23;20024;-83
2021/07/25 11:54:57;;;;;;;3.67;3.33;;;22.10;99.90;;;;;;6191971;23;20016;-85
2021/07/25 11:57:27;;;;;;;3.53;2.67;;;22.10;99.90;;;;;;6254419;23;20019;-84
2021/07/25 11:59:59;;;;;;;2.92;2.70;;;22.20;99.90;;;;;;6195426;23;20028;-85
2021/07/25 12:02:28;;;;;;;3.83;2.90;;;22.30;99.90;;;;;;6252623;23;20035;-85
2021/07/25 12:04:58;;;;;;;3.10;2.58;;;22.30;99.90;;;;;;6254599;23;20012;-86
2021/07/25 12:07:46;;;;;;;3.40;2.67;;;22.20;99.90;;;;;;6247784;22;20360;-88
2021/07/25 12:10:31;;;;;;;3.10;2.55;;;22.20;99.90;;;;;;6216375;23;20012;-87
2021/07/25 12:13:07;;;;;;;2.58;2.05;;;22.10;99.90;;;;;;6225959;23;20812;-86
2021/07/25 12:15:36;;;;;;;3.35;2.20;;;22.10;99.90;;;;;;6246997;23;20031;-86
2021/07/25 12:18:06;;;;;;;2.75;2.55;;;22.00;99.90;;;;;;6192111;23;20020;-87
2021/07/25 12:20:36;;;;;;;3.65;3.28;;;22.10;99.90;;;;;;6192200;23;20039;-84
2021/07/25 12:23:08;;;;;;;6.07;3.72;;;22.10;99.90;;;;;;6250670;23;20046;-85
2021/07/25 12:25:55;;;;;;;6.82;2.70;;;22.00;99.90;;;;;;6254349;23;20034;-85
2021/07/25 12:28:24;;;;;;;4.90;3.05;;;22.00;99.90;;;;;;6245292;22;20031;-85
2021/07/25 12:30:56;;;;;;;10.70;3.15;;;22.00;99.90;;;;;;6223085;23;20538;-85
2021/07/25 12:33:28;;;;;;;6.50;2.75;;;22.10;99.90;;;;;;6227377;23;20027;-86
2021/07/25 12:36:08;;;;;;;3.33;2.90;;;22.30;99.90;;;;;;6246849;23;20028;-86
2021/07/25 12:38:36;;;;;;;5.75;3.08;;;22.50;99.90;;;;;;6191198;22;20352;-86
2021/07/25 12:41:04;;;;;;;3.03;2.42;;;22.60;99.90;;;;;;6253449;23;20016;-85
2021/07/25 12:43:31;;;;;;;4.85;2.50;;;22.60;99.90;;;;;;6248281;23;20028;-85
2021/07/25 12:46:00;;;;;;;3.28;2.90;;;22.60;99.90;;;;;;6201127;23;20023;-82
2021/07/25 12:48:33;;;;;;;4.10;3.00;;;22.40;99.90;;;;;;6244610;22;20463;-80
2021/07/25 12:53:44;;;;;;;6.47;3.08;;;22.10;99.90;;;;;;6192289;23;20426;-79
2021/07/25 12:56:12;;;;;;;5.53;2.92;;;21.90;99.90;;;;;;6218286;23;20020;-80
2021/07/25 12:58:44;;;;;;;7.47;2.90;;;21.80;99.90;;;;;;6215063;22;20016;-80
2021/07/25 13:03:44;;;;;;;3.33;2.70;;;21.70;99.90;;;;;;6225905;23;20015;-81
2021/07/25 13:04:09;;;;;;;8.90;2.95;;;21.70;99.90;;;;;;6245255;22;20035;-79
2021/07/25 13:06:43;;;;;;;3.47;3.17;;;21.60;99.90;;;;;;6251900;22;20015;-80
2021/07/25 13:09:11;;;;;;;3.53;3.10;;;21.60;99.90;;;;;;6252994;23;20019;-78
2021/07/25 13:11:41;;;;;;;3.72;2.58;;;21.50;99.90;;;;;;6219708;23;20028;-80